sensor_id;sensor_type;location;lat;lon;timestamp;P1;durP1;ratioP1;P2;durP2;ratioP2
30127;SDS011;16942;53.196;6.592;2023-05-19T00:02:12;12.93;;;3.80;;
30127;SDS011;16942;53.196;6.592;2023-05-19T00:04:39;8.90;;;3.80;;
30127;SDS011;16942;53.196;6.592;2023-05-19T00:07:05;7.07;;;3.53;;
30127;SDS011;16942;53.196;6.592;2023-05-19T00:09:34;14.57;;;4.53;;
30127;SDS011;16942;53.196;6.592;2023-05-19T00:12:00;10.07;;;4.13;;
30127;SDS011;16942;53.196;6.592;2023-05-19T00:14:26;11.03;;;4.47;;
30127;SDS011;16942;53.196;6.592;2023-05-19T00:16:53;12.30;;;3.90;;
30127;SDS011;16942;53.196;6.592;2023-05-19T00:19:20;6.20;;;3.63;;
30127;SDS011;16942;53.196;6.592;2023-05-19T00:21:48;10.10;;;3.50;;
30127;SDS011;16942;53.196;6.592;2023-05-19T00:24:14;11.83;;;3.23;;
30127;SDS011;16942;53.196;6.592;2023-05-19T00:26:40;7.00;;;3.30;;
30127;SDS011;16942;53.196;6.592;2023-05-19T00:29:06;8.73;;;3.90;;
30127;SDS011;16942;53.196;6.592;2023-05-19T00:31:32;12.30;;;3.63;;
30127;SDS011;16942;53.196;6.592;2023-05-19T00:33:58;9.60;;;3.40;;
30127;SDS011;16942;53.196;6.592;2023-05-19T00:36:24;6.40;;;3.30;;
30127;SDS011;16942;53.196;6.592;2023-05-19T00:38:50;9.83;;;3.10;;
30127;SDS011;16942;53.196;6.592;2023-05-19T00:41:16;9.50;;;3.90;;
30127;SDS011;16942;53.196;6.592;2023-05-19T00:43:42;9.83;;;4.50;;
30127;SDS011;16942;53.196;6.592;2023-05-19T00:46:08;11.63;;;3.80;;
30127;SDS011;16942;53.196;6.592;2023-05-19T00:48:35;10.20;;;3.90;;
30127;SDS011;16942;53.196;6.592;2023-05-19T00:51:01;5.73;;;3.17;;
30127;SDS011;16942;53.196;6.592;2023-05-19T00:53:31;8.83;;;3.23;;
30127;SDS011;16942;53.196;6.592;2023-05-19T00:56:00;7.80;;;3.50;;
30127;SDS011;16942;53.196;6.592;2023-05-19T00:58:26;7.07;;;3.77;;
30127;SDS011;16942;53.196;6.592;2023-05-19T01:00:55;10.50;;;3.60;;
30127;SDS011;16942;53.196;6.592;2023-05-19T01:03:27;10.07;;;3.23;;
30127;SDS011;16942;53.196;6.592;2023-05-19T01:05:54;6.40;;;3.30;;
30127;SDS011;16942;53.196;6.592;2023-05-19T01:08:20;8.43;;;3.40;;
30127;SDS011;16942;53.196;6.592;2023-05-19T01:10:46;7.20;;;3.70;;
30127;SDS011;16942;53.196;6.592;2023-05-19T01:13:13;8.50;;;3.30;;
30127;SDS011;16942;53.196;6.592;2023-05-19T01:16:23;9.17;;;3.83;;
30127;SDS011;16942;53.196;6.592;2023-05-19T01:23:54;9.07;;;3.50;;
30127;SDS011;16942;53.196;6.592;2023-05-19T01:26:30;6.23;;;3.13;;
30127;SDS011;16942;53.196;6.592;2023-05-19T01:31:34;5.53;;;3.27;;
30127;SDS011;16942;53.196;6.592;2023-05-19T01:34:01;8.87;;;3.00;;
30127;SDS011;16942;53.196;6.592;2023-05-19T01:36:28;14.43;;;3.73;;
30127;SDS011;16942;53.196;6.592;2023-05-19T01:38:57;7.83;;;3.10;;
30127;SDS011;16942;53.196;6.592;2023-05-19T01:41:23;10.70;;;3.50;;
30127;SDS011;16942;53.196;6.592;2023-05-19T01:43:50;7.07;;;3.13;;
30127;SDS011;16942;53.196;6.592;2023-05-19T01:46:18;8.30;;;2.90;;
30127;SDS011;16942;53.196;6.592;2023-05-19T01:48:44;7.20;;;3.10;;
30127;SDS011;16942;53.196;6.592;2023-05-19T01:51:10;7.10;;;2.97;;
30127;SDS011;16942;53.196;6.592;2023-05-19T01:53:36;12.17;;;3.73;;
30127;SDS011;16942;53.196;6.592;2023-05-19T01:56:02;11.50;;;3.40;;
30127;SDS011;16942;53.196;6.592;2023-05-19T02:01:13;9.23;;;3.37;;
30127;SDS011;16942;53.196;6.592;2023-05-19T02:03:45;9.23;;;3.23;;
30127;SDS011;16942;53.196;6.592;2023-05-19T02:11:36;6.30;;;3.17;;
30127;SDS011;16942;53.196;6.592;2023-05-19T02:14:08;8.03;;;3.50;;
30127;SDS011;16942;53.196;6.592;2023-05-19T02:16:35;7.27;;;2.87;;
30127;SDS011;16942;53.196;6.592;2023-05-19T02:19:02;11.30;;;3.13;;
30127;SDS011;16942;53.196;6.592;2023-05-19T02:21:28;9.17;;;3.80;;
30127;SDS011;16942;53.196;6.592;2023-05-19T02:23:55;9.33;;;3.37;;
30127;SDS011;16942;53.196;6.592;2023-05-19T02:26:21;8.80;;;3.63;;
30127;SDS011;16942;53.196;6.592;2023-05-19T02:28:47;9.00;;;3.10;;
30127;SDS011;16942;53.196;6.592;2023-05-19T02:31:13;10.67;;;3.30;;
30127;SDS011;16942;53.196;6.592;2023-05-19T02:33:39;8.03;;;3.47;;
30127;SDS011;16942;53.196;6.592;2023-05-19T02:36:05;8.80;;;3.27;;
30127;SDS011;16942;53.196;6.592;2023-05-19T02:38:32;9.83;;;3.20;;
30127;SDS011;16942;53.196;6.592;2023-05-19T02:40:58;11.90;;;3.27;;
30127;SDS011;16942;53.196;6.592;2023-05-19T02:43:25;6.07;;;3.20;;
30127;SDS011;16942;53.196;6.592;2023-05-19T02:45:51;8.57;;;3.07;;
30127;SDS011;16942;53.196;6.592;2023-05-19T02:48:17;8.73;;;3.17;;
30127;SDS011;16942;53.196;6.592;2023-05-19T02:50:43;8.03;;;2.60;;
30127;SDS011;16942;53.196;6.592;2023-05-19T02:53:09;10.13;;;2.80;;
30127;SDS011;16942;53.196;6.592;2023-05-19T02:55:35;8.23;;;3.13;;
30127;SDS011;16942;53.196;6.592;2023-05-19T02:58:01;10.53;;;3.43;;
30127;SDS011;16942;53.196;6.592;2023-05-19T03:00:27;10.53;;;3.30;;
30127;SDS011;16942;53.196;6.592;2023-05-19T03:02:53;11.53;;;3.43;;
30127;SDS011;16942;53.196;6.592;2023-05-19T03:05:19;9.20;;;3.43;;
30127;SDS011;16942;53.196;6.592;2023-05-19T03:07:45;12.07;;;3.43;;
30127;SDS011;16942;53.196;6.592;2023-05-19T03:10:11;11.43;;;3.63;;
30127;SDS011;16942;53.196;6.592;2023-05-19T03:12:37;9.07;;;3.57;;
30127;SDS011;16942;53.196;6.592;2023-05-19T03:15:03;13.40;;;3.20;;
30127;SDS011;16942;53.196;6.592;2023-05-19T03:17:30;11.30;;;3.40;;
30127;SDS011;16942;53.196;6.592;2023-05-19T03:19:58;7.57;;;3.47;;
30127;SDS011;16942;53.196;6.592;2023-05-19T03:22:24;8.17;;;3.07;;
30127;SDS011;16942;53.196;6.592;2023-05-19T03:24:50;6.57;;;3.47;;
30127;SDS011;16942;53.196;6.592;2023-05-19T03:27:18;5.20;;;2.97;;
30127;SDS011;16942;53.196;6.592;2023-05-19T03:29:44;5.40;;;3.10;;
30127;SDS011;16942;53.196;6.592;2023-05-19T03:32:10;6.73;;;3.00;;
30127;SDS011;16942;53.196;6.592;2023-05-19T03:34:36;7.97;;;3.10;;
30127;SDS011;16942;53.196;6.592;2023-05-19T03:37:02;9.33;;;3.67;;
30127;SDS011;16942;53.196;6.592;2023-05-19T03:39:28;9.80;;;3.20;;
30127;SDS011;16942;53.196;6.592;2023-05-19T03:41:54;10.33;;;3.60;;
30127;SDS011;16942;53.196;6.592;2023-05-19T03:44:20;15.30;;;4.30;;
30127;SDS011;16942;53.196;6.592;2023-05-19T03:46:46;8.17;;;3.47;;
30127;SDS011;16942;53.196;6.592;2023-05-19T03:49:12;7.33;;;3.20;;
30127;SDS011;16942;53.196;6.592;2023-05-19T03:51:39;7.17;;;3.43;;
30127;SDS011;16942;53.196;6.592;2023-05-19T03:54:05;11.00;;;3.47;;
30127;SDS011;16942;53.196;6.592;2023-05-19T03:56:31;10.37;;;3.40;;
30127;SDS011;16942;53.196;6.592;2023-05-19T03:58:57;8.70;;;4.37;;
30127;SDS011;16942;53.196;6.592;2023-05-19T04:01:23;13.13;;;3.40;;
30127;SDS011;16942;53.196;6.592;2023-05-19T04:03:49;11.67;;;4.70;;
30127;SDS011;16942;53.196;6.592;2023-05-19T04:06:15;13.90;;;4.30;;
30127;SDS011;16942;53.196;6.592;2023-05-19T04:08:42;9.83;;;3.83;;
30127;SDS011;16942;53.196;6.592;2023-05-19T04:11:08;10.83;;;3.87;;
30127;SDS011;16942;53.196;6.592;2023-05-19T04:13:35;10.47;;;3.73;;
30127;SDS011;16942;53.196;6.592;2023-05-19T04:16:00;10.67;;;3.80;;
30127;SDS011;16942;53.196;6.592;2023-05-19T04:18:27;18.70;;;4.77;;
30127;SDS011;16942;53.196;6.592;2023-05-19T04:20:53;9.40;;;3.83;;
30127;SDS011;16942;53.196;6.592;2023-05-19T04:23:19;13.07;;;4.33;;
30127;SDS011;16942;53.196;6.592;2023-05-19T04:25:44;14.70;;;4.20;;
30127;SDS011;16942;53.196;6.592;2023-05-19T04:28:12;9.43;;;3.43;;
30127;SDS011;16942;53.196;6.592;2023-05-19T04:30:38;10.23;;;3.60;;
30127;SDS011;16942;53.196;6.592;2023-05-19T04:33:06;10.47;;;4.20;;
30127;SDS011;16942;53.196;6.592;2023-05-19T04:35:33;8.30;;;4.07;;
30127;SDS011;16942;53.196;6.592;2023-05-19T04:37:59;11.37;;;4.40;;
30127;SDS011;16942;53.196;6.592;2023-05-19T04:40:25;9.30;;;3.90;;
30127;SDS011;16942;53.196;6.592;2023-05-19T04:42:54;8.50;;;4.47;;
30127;SDS011;16942;53.196;6.592;2023-05-19T04:45:21;10.70;;;4.67;;
30127;SDS011;16942;53.196;6.592;2023-05-19T04:47:47;8.17;;;4.23;;
30127;SDS011;16942;53.196;6.592;2023-05-19T04:50:14;9.20;;;4.13;;
30127;SDS011;16942;53.196;6.592;2023-05-19T04:52:40;11.10;;;3.90;;
30127;SDS011;16942;53.196;6.592;2023-05-19T04:55:09;10.57;;;5.20;;
30127;SDS011;16942;53.196;6.592;2023-05-19T04:57:35;9.03;;;4.03;;
30127;SDS011;16942;53.196;6.592;2023-05-19T05:00:01;11.33;;;4.43;;
30127;SDS011;16942;53.196;6.592;2023-05-19T05:02:31;11.07;;;4.47;;
30127;SDS011;16942;53.196;6.592;2023-05-19T05:04:57;14.47;;;4.83;;
30127;SDS011;16942;53.196;6.592;2023-05-19T05:07:24;6.70;;;4.30;;
30127;SDS011;16942;53.196;6.592;2023-05-19T05:09:50;14.63;;;4.70;;
30127;SDS011;16942;53.196;6.592;2023-05-19T05:12:16;9.57;;;5.30;;
30127;SDS011;16942;53.196;6.592;2023-05-19T05:14:42;11.97;;;4.73;;
30127;SDS011;16942;53.196;6.592;2023-05-19T05:17:11;8.40;;;5.00;;
30127;SDS011;16942;53.196;6.592;2023-05-19T05:19:37;8.33;;;4.70;;
30127;SDS011;16942;53.196;6.592;2023-05-19T05:22:04;14.13;;;5.83;;
30127;SDS011;16942;53.196;6.592;2023-05-19T05:24:30;12.50;;;5.03;;
30127;SDS011;16942;53.196;6.592;2023-05-19T05:26:57;14.33;;;5.80;;
30127;SDS011;16942;53.196;6.592;2023-05-19T05:29:23;16.03;;;6.27;;
30127;SDS011;16942;53.196;6.592;2023-05-19T05:31:49;11.87;;;5.43;;
30127;SDS011;16942;53.196;6.592;2023-05-19T05:34:15;11.30;;;5.37;;
30127;SDS011;16942;53.196;6.592;2023-05-19T05:36:42;10.27;;;5.13;;
30127;SDS011;16942;53.196;6.592;2023-05-19T05:39:08;12.97;;;5.47;;
30127;SDS011;16942;53.196;6.592;2023-05-19T05:41:34;11.67;;;5.90;;
30127;SDS011;16942;53.196;6.592;2023-05-19T05:44:00;12.73;;;6.40;;
30127;SDS011;16942;53.196;6.592;2023-05-19T05:46:26;15.47;;;6.60;;
30127;SDS011;16942;53.196;6.592;2023-05-19T05:48:52;14.33;;;6.30;;
30127;SDS011;16942;53.196;6.592;2023-05-19T05:51:22;11.20;;;6.70;;
30127;SDS011;16942;53.196;6.592;2023-05-19T05:53:51;18.17;;;7.20;;
30127;SDS011;16942;53.196;6.592;2023-05-19T05:56:18;16.20;;;7.70;;
30127;SDS011;16942;53.196;6.592;2023-05-19T05:58:44;13.13;;;6.80;;
30127;SDS011;16942;53.196;6.592;2023-05-19T06:01:10;12.10;;;6.50;;
30127;SDS011;16942;53.196;6.592;2023-05-19T06:03:40;12.03;;;6.73;;
30127;SDS011;16942;53.196;6.592;2023-05-19T06:06:09;16.57;;;6.27;;
30127;SDS011;16942;53.196;6.592;2023-05-19T06:08:35;13.53;;;7.00;;
30127;SDS011;16942;53.196;6.592;2023-05-19T06:11:01;13.57;;;7.23;;
30127;SDS011;16942;53.196;6.592;2023-05-19T06:13:35;12.40;;;7.13;;
30127;SDS011;16942;53.196;6.592;2023-05-19T06:16:02;15.67;;;7.10;;
30127;SDS011;16942;53.196;6.592;2023-05-19T06:18:28;13.80;;;7.87;;
30127;SDS011;16942;53.196;6.592;2023-05-19T06:20:54;13.53;;;6.57;;
30127;SDS011;16942;53.196;6.592;2023-05-19T06:23:20;14.20;;;6.73;;
30127;SDS011;16942;53.196;6.592;2023-05-19T06:25:46;16.23;;;6.77;;
30127;SDS011;16942;53.196;6.592;2023-05-19T06:28:12;20.60;;;6.90;;
30127;SDS011;16942;53.196;6.592;2023-05-19T06:30:38;15.43;;;6.60;;
30127;SDS011;16942;53.196;6.592;2023-05-19T06:33:04;13.97;;;6.23;;
30127;SDS011;16942;53.196;6.592;2023-05-19T06:35:30;12.90;;;5.93;;
30127;SDS011;16942;53.196;6.592;2023-05-19T06:37:56;15.60;;;5.20;;
30127;SDS011;16942;53.196;6.592;2023-05-19T06:40:22;17.53;;;5.40;;
30127;SDS011;16942;53.196;6.592;2023-05-19T06:42:48;13.63;;;6.03;;
30127;SDS011;16942;53.196;6.592;2023-05-19T06:45:14;10.90;;;4.90;;
30127;SDS011;16942;53.196;6.592;2023-05-19T06:47:41;8.33;;;4.73;;
30127;SDS011;16942;53.196;6.592;2023-05-19T06:50:08;7.10;;;4.73;;
30127;SDS011;16942;53.196;6.592;2023-05-19T06:52:34;10.67;;;4.93;;
30127;SDS011;16942;53.196;6.592;2023-05-19T06:55:00;10.33;;;5.03;;
30127;SDS011;16942;53.196;6.592;2023-05-19T06:57:27;9.37;;;4.23;;
30127;SDS011;16942;53.196;6.592;2023-05-19T06:59:53;8.63;;;3.80;;
30127;SDS011;16942;53.196;6.592;2023-05-19T07:02:19;10.53;;;3.73;;
30127;SDS011;16942;53.196;6.592;2023-05-19T07:04:45;10.17;;;3.57;;
30127;SDS011;16942;53.196;6.592;2023-05-19T07:07:11;7.40;;;3.90;;
30127;SDS011;16942;53.196;6.592;2023-05-19T07:09:37;8.30;;;4.00;;
30127;SDS011;16942;53.196;6.592;2023-05-19T07:12:03;7.83;;;3.90;;
30127;SDS011;16942;53.196;6.592;2023-05-19T07:14:29;5.80;;;3.77;;
30127;SDS011;16942;53.196;6.592;2023-05-19T07:16:56;11.17;;;3.93;;
30127;SDS011;16942;53.196;6.592;2023-05-19T07:19:22;8.17;;;3.73;;
30127;SDS011;16942;53.196;6.592;2023-05-19T07:21:48;8.67;;;3.10;;
30127;SDS011;16942;53.196;6.592;2023-05-19T07:24:14;11.03;;;3.87;;
30127;SDS011;16942;53.196;6.592;2023-05-19T07:26:40;11.33;;;3.80;;
30127;SDS011;16942;53.196;6.592;2023-05-19T07:29:06;12.50;;;3.77;;
30127;SDS011;16942;53.196;6.592;2023-05-19T07:31:32;10.00;;;3.40;;
30127;SDS011;16942;53.196;6.592;2023-05-19T07:33:58;9.23;;;3.73;;
30127;SDS011;16942;53.196;6.592;2023-05-19T07:36:24;10.00;;;3.40;;
30127;SDS011;16942;53.196;6.592;2023-05-19T07:38:51;6.27;;;3.80;;
30127;SDS011;16942;53.196;6.592;2023-05-19T07:41:17;8.80;;;3.53;;
30127;SDS011;16942;53.196;6.592;2023-05-19T07:43:43;7.10;;;3.50;;
30127;SDS011;16942;53.196;6.592;2023-05-19T07:46:09;10.77;;;3.00;;
30127;SDS011;16942;53.196;6.592;2023-05-19T07:48:35;8.07;;;3.10;;
30127;SDS011;16942;53.196;6.592;2023-05-19T07:51:01;10.13;;;3.47;;
30127;SDS011;16942;53.196;6.592;2023-05-19T07:53:27;4.20;;;2.67;;
30127;SDS011;16942;53.196;6.592;2023-05-19T07:55:53;7.07;;;2.53;;
30127;SDS011;16942;53.196;6.592;2023-05-19T07:58:20;8.20;;;2.80;;
30127;SDS011;16942;53.196;6.592;2023-05-19T08:00:46;8.67;;;2.03;;
30127;SDS011;16942;53.196;6.592;2023-05-19T08:03:12;6.40;;;2.10;;
30127;SDS011;16942;53.196;6.592;2023-05-19T08:05:41;6.10;;;2.03;;
30127;SDS011;16942;53.196;6.592;2023-05-19T08:08:07;8.80;;;2.20;;
30127;SDS011;16942;53.196;6.592;2023-05-19T08:10:33;6.17;;;2.90;;
30127;SDS011;16942;53.196;6.592;2023-05-19T08:12:59;5.77;;;2.33;;
30127;SDS011;16942;53.196;6.592;2023-05-19T08:15:25;9.13;;;2.53;;
30127;SDS011;16942;53.196;6.592;2023-05-19T08:17:51;8.10;;;3.37;;
30127;SDS011;16942;53.196;6.592;2023-05-19T08:20:17;11.70;;;3.60;;
30127;SDS011;16942;53.196;6.592;2023-05-19T08:22:44;10.87;;;2.53;;
30127;SDS011;16942;53.196;6.592;2023-05-19T08:25:10;8.30;;;2.90;;
30127;SDS011;16942;53.196;6.592;2023-05-19T08:27:36;10.17;;;2.50;;
30127;SDS011;16942;53.196;6.592;2023-05-19T08:30:02;8.83;;;2.67;;
30127;SDS011;16942;53.196;6.592;2023-05-19T08:32:28;9.40;;;3.57;;
30127;SDS011;16942;53.196;6.592;2023-05-19T08:34:54;10.70;;;3.03;;
30127;SDS011;16942;53.196;6.592;2023-05-19T08:37:20;8.80;;;2.87;;
30127;SDS011;16942;53.196;6.592;2023-05-19T08:39:46;5.37;;;2.50;;
30127;SDS011;16942;53.196;6.592;2023-05-19T08:42:12;4.40;;;2.57;;
30127;SDS011;16942;53.196;6.592;2023-05-19T08:44:38;4.80;;;2.53;;
30127;SDS011;16942;53.196;6.592;2023-05-19T08:47:06;7.60;;;3.93;;
30127;SDS011;16942;53.196;6.592;2023-05-19T08:49:43;8.47;;;3.10;;
30127;SDS011;16942;53.196;6.592;2023-05-19T08:52:18;8.87;;;3.00;;
30127;SDS011;16942;53.196;6.592;2023-05-19T08:55:03;8.50;;;3.40;;
30127;SDS011;16942;53.196;6.592;2023-05-19T08:57:30;7.83;;;2.50;;
30127;SDS011;16942;53.196;6.592;2023-05-19T08:59:56;5.20;;;2.37;;
30127;SDS011;16942;53.196;6.592;2023-05-19T09:02:23;5.60;;;2.90;;
30127;SDS011;16942;53.196;6.592;2023-05-19T09:04:49;5.83;;;2.73;;
30127;SDS011;16942;53.196;6.592;2023-05-19T09:07:15;8.20;;;2.93;;
30127;SDS011;16942;53.196;6.592;2023-05-19T09:09:42;13.27;;;3.40;;
30127;SDS011;16942;53.196;6.592;2023-05-19T09:12:12;4.97;;;2.70;;
30127;SDS011;16942;53.196;6.592;2023-05-19T09:14:38;6.83;;;3.50;;
30127;SDS011;16942;53.196;6.592;2023-05-19T09:17:04;8.80;;;3.07;;
30127;SDS011;16942;53.196;6.592;2023-05-19T09:19:30;7.77;;;2.97;;
30127;SDS011;16942;53.196;6.592;2023-05-19T09:21:57;6.30;;;2.60;;
30127;SDS011;16942;53.196;6.592;2023-05-19T09:24:30;5.17;;;2.90;;
30127;SDS011;16942;53.196;6.592;2023-05-19T09:26:56;5.33;;;2.90;;
30127;SDS011;16942;53.196;6.592;2023-05-19T09:29:22;8.70;;;2.67;;
30127;SDS011;16942;53.196;6.592;2023-05-19T09:31:49;9.23;;;3.23;;
30127;SDS011;16942;53.196;6.592;2023-05-19T09:34:16;10.27;;;3.00;;
30127;SDS011;16942;53.196;6.592;2023-05-19T09:36:42;5.73;;;2.63;;
30127;SDS011;16942;53.196;6.592;2023-05-19T09:39:11;5.90;;;2.57;;
30127;SDS011;16942;53.196;6.592;2023-05-19T09:41:38;6.70;;;2.70;;
30127;SDS011;16942;53.196;6.592;2023-05-19T09:44:04;7.63;;;3.33;;
30127;SDS011;16942;53.196;6.592;2023-05-19T09:46:31;6.37;;;2.70;;
30127;SDS011;16942;53.196;6.592;2023-05-19T09:48:59;6.63;;;2.80;;
30127;SDS011;16942;53.196;6.592;2023-05-19T09:51:34;7.43;;;2.70;;
30127;SDS011;16942;53.196;6.592;2023-05-19T09:54:01;9.67;;;2.90;;
30127;SDS011;16942;53.196;6.592;2023-05-19T09:56:30;7.90;;;2.73;;
30127;SDS011;16942;53.196;6.592;2023-05-19T09:58:57;6.80;;;2.60;;
30127;SDS011;16942;53.196;6.592;2023-05-19T10:01:23;10.00;;;2.90;;
30127;SDS011;16942;53.196;6.592;2023-05-19T10:03:49;6.67;;;2.50;;
30127;SDS011;16942;53.196;6.592;2023-05-19T10:06:17;7.37;;;2.80;;
30127;SDS011;16942;53.196;6.592;2023-05-19T10:08:43;4.87;;;2.53;;
30127;SDS011;16942;53.196;6.592;2023-05-19T10:11:09;7.97;;;2.50;;
30127;SDS011;16942;53.196;6.592;2023-05-19T10:13:36;8.63;;;3.10;;
30127;SDS011;16942;53.196;6.592;2023-05-19T10:16:03;5.73;;;2.43;;
30127;SDS011;16942;53.196;6.592;2023-05-19T10:18:30;5.63;;;2.73;;
30127;SDS011;16942;53.196;6.592;2023-05-19T10:20:58;8.23;;;2.30;;
30127;SDS011;16942;53.196;6.592;2023-05-19T10:23:25;7.13;;;3.00;;
30127;SDS011;16942;53.196;6.592;2023-05-19T10:25:52;12.17;;;2.83;;
30127;SDS011;16942;53.196;6.592;2023-05-19T10:28:19;5.13;;;2.50;;
30127;SDS011;16942;53.196;6.592;2023-05-19T10:30:49;5.77;;;2.30;;
30127;SDS011;16942;53.196;6.592;2023-05-19T10:33:16;10.17;;;3.67;;
30127;SDS011;16942;53.196;6.592;2023-05-19T10:40:56;4.90;;;2.20;;
30127;SDS011;16942;53.196;6.592;2023-05-19T10:43:46;5.03;;;1.70;;
30127;SDS011;16942;53.196;6.592;2023-05-19T10:46:13;5.67;;;2.17;;
30127;SDS011;16942;53.196;6.592;2023-05-19T10:48:42;4.67;;;2.40;;
30127;SDS011;16942;53.196;6.592;2023-05-19T10:51:09;6.33;;;2.10;;
30127;SDS011;16942;53.196;6.592;2023-05-19T10:53:37;4.47;;;2.30;;
30127;SDS011;16942;53.196;6.592;2023-05-19T10:56:32;4.67;;;2.20;;
30127;SDS011;16942;53.196;6.592;2023-05-19T10:59:00;4.30;;;2.00;;
30127;SDS011;16942;53.196;6.592;2023-05-19T11:01:30;6.10;;;2.33;;
30127;SDS011;16942;53.196;6.592;2023-05-19T11:04:01;4.80;;;2.20;;
30127;SDS011;16942;53.196;6.592;2023-05-19T11:06:43;9.53;;;2.83;;
30127;SDS011;16942;53.196;6.592;2023-05-19T11:09:19;8.60;;;1.90;;
30127;SDS011;16942;53.196;6.592;2023-05-19T11:11:48;5.80;;;2.30;;
30127;SDS011;16942;53.196;6.592;2023-05-19T11:14:16;5.40;;;2.03;;
30127;SDS011;16942;53.196;6.592;2023-05-19T11:16:44;6.57;;;2.20;;
30127;SDS011;16942;53.196;6.592;2023-05-19T11:19:50;4.93;;;2.13;;
30127;SDS011;16942;53.196;6.592;2023-05-19T11:22:11;8.90;;;2.33;;
30127;SDS011;16942;53.196;6.592;2023-05-19T11:24:46;5.10;;;2.00;;
30127;SDS011;16942;53.196;6.592;2023-05-19T11:27:33;4.65;;;1.90;;
30127;SDS011;16942;53.196;6.592;2023-05-19T11:32:33;3.25;;;1.83;;
30127;SDS011;16942;53.196;6.592;2023-05-19T11:34:59;5.78;;;2.55;;
30127;SDS011;16942;53.196;6.592;2023-05-19T11:37:26;5.65;;;2.13;;
30127;SDS011;16942;53.196;6.592;2023-05-19T11:39:55;5.18;;;1.92;;
30127;SDS011;16942;53.196;6.592;2023-05-19T11:42:21;8.13;;;2.28;;
30127;SDS011;16942;53.196;6.592;2023-05-19T11:44:47;4.28;;;1.90;;
30127;SDS011;16942;53.196;6.592;2023-05-19T11:47:14;4.43;;;1.90;;
30127;SDS011;16942;53.196;6.592;2023-05-19T11:49:44;5.25;;;2.17;;
30127;SDS011;16942;53.196;6.592;2023-05-19T11:52:10;6.20;;;1.98;;
30127;SDS011;16942;53.196;6.592;2023-05-19T11:54:36;5.25;;;1.90;;
30127;SDS011;16942;53.196;6.592;2023-05-19T11:57:03;4.35;;;2.00;;
30127;SDS011;16942;53.196;6.592;2023-05-19T11:59:33;4.78;;;2.08;;
30127;SDS011;16942;53.196;6.592;2023-05-19T12:02:00;7.22;;;2.08;;
30127;SDS011;16942;53.196;6.592;2023-05-19T12:04:29;5.68;;;2.10;;
30127;SDS011;16942;53.196;6.592;2023-05-19T12:06:56;3.28;;;2.03;;
30127;SDS011;16942;53.196;6.592;2023-05-19T12:09:22;5.90;;;2.30;;
30127;SDS011;16942;53.196;6.592;2023-05-19T12:11:49;6.93;;;2.33;;
30127;SDS011;16942;53.196;6.592;2023-05-19T12:14:16;8.48;;;2.65;;
30127;SDS011;16942;53.196;6.592;2023-05-19T12:16:42;6.97;;;2.35;;
30127;SDS011;16942;53.196;6.592;2023-05-19T12:19:08;5.88;;;2.03;;
30127;SDS011;16942;53.196;6.592;2023-05-19T12:21:34;7.97;;;2.22;;
30127;SDS011;16942;53.196;6.592;2023-05-19T12:24:01;7.93;;;2.30;;
30127;SDS011;16942;53.196;6.592;2023-05-19T12:26:27;6.55;;;2.42;;
30127;SDS011;16942;53.196;6.592;2023-05-19T12:28:53;5.03;;;3.03;;
30127;SDS011;16942;53.196;6.592;2023-05-19T12:31:20;3.60;;;2.17;;
30127;SDS011;16942;53.196;6.592;2023-05-19T12:33:49;5.32;;;2.38;;
30127;SDS011;16942;53.196;6.592;2023-05-19T12:36:15;7.40;;;2.40;;
30127;SDS011;16942;53.196;6.592;2023-05-19T12:38:42;5.70;;;2.47;;
30127;SDS011;16942;53.196;6.592;2023-05-19T12:41:11;5.40;;;2.40;;
30127;SDS011;16942;53.196;6.592;2023-05-19T12:43:37;4.75;;;2.30;;
30127;SDS011;16942;53.196;6.592;2023-05-19T12:46:10;6.60;;;2.75;;
30127;SDS011;16942;53.196;6.592;2023-05-19T12:48:42;7.53;;;2.47;;
30127;SDS011;16942;53.196;6.592;2023-05-19T12:51:09;9.52;;;2.90;;
30127;SDS011;16942;53.196;6.592;2023-05-19T12:53:38;8.25;;;2.55;;
30127;SDS011;16942;53.196;6.592;2023-05-19T12:56:10;5.88;;;2.20;;
30127;SDS011;16942;53.196;6.592;2023-05-19T12:58:37;5.43;;;2.47;;
30127;SDS011;16942;53.196;6.592;2023-05-19T13:01:04;3.40;;;2.35;;
30127;SDS011;16942;53.196;6.592;2023-05-19T13:03:31;8.60;;;2.33;;
30127;SDS011;16942;53.196;6.592;2023-05-19T13:05:57;7.88;;;2.53;;
30127;SDS011;16942;53.196;6.592;2023-05-19T13:08:23;12.90;;;2.72;;
30127;SDS011;16942;53.196;6.592;2023-05-19T13:10:49;6.50;;;2.75;;
30127;SDS011;16942;53.196;6.592;2023-05-19T13:13:16;8.60;;;2.92;;
30127;SDS011;16942;53.196;6.592;2023-05-19T13:15:43;5.75;;;2.50;;
30127;SDS011;16942;53.196;6.592;2023-05-19T13:18:09;5.32;;;2.35;;
30127;SDS011;16942;53.196;6.592;2023-05-19T13:20:36;6.82;;;2.47;;
30127;SDS011;16942;53.196;6.592;2023-05-19T13:23:02;9.05;;;2.85;;
30127;SDS011;16942;53.196;6.592;2023-05-19T13:25:29;6.65;;;2.42;;
30127;SDS011;16942;53.196;6.592;2023-05-19T13:27:55;8.05;;;2.80;;
30127;SDS011;16942;53.196;6.592;2023-05-19T13:30:23;4.40;;;2.72;;
30127;SDS011;16942;53.196;6.592;2023-05-19T13:32:49;10.80;;;3.30;;
30127;SDS011;16942;53.196;6.592;2023-05-19T13:35:16;7.90;;;3.05;;
30127;SDS011;16942;53.196;6.592;2023-05-19T13:37:42;6.85;;;2.63;;
30127;SDS011;16942;53.196;6.592;2023-05-19T13:40:08;9.18;;;3.20;;
30127;SDS011;16942;53.196;6.592;2023-05-19T13:42:34;6.47;;;2.67;;
30127;SDS011;16942;53.196;6.592;2023-05-19T13:45:01;8.40;;;2.95;;
30127;SDS011;16942;53.196;6.592;2023-05-19T13:47:27;6.40;;;3.38;;
30127;SDS011;16942;53.196;6.592;2023-05-19T13:49:53;7.32;;;3.35;;
30127;SDS011;16942;53.196;6.592;2023-05-19T13:52:19;9.25;;;3.13;;
30127;SDS011;16942;53.196;6.592;2023-05-19T13:54:45;6.63;;;3.33;;
30127;SDS011;16942;53.196;6.592;2023-05-19T13:57:12;4.75;;;2.97;;
30127;SDS011;16942;53.196;6.592;2023-05-19T13:59:38;13.40;;;3.90;;
30127;SDS011;16942;53.196;6.592;2023-05-19T14:02:05;10.63;;;3.80;;
30127;SDS011;16942;53.196;6.592;2023-05-19T14:04:31;7.82;;;3.22;;
30127;SDS011;16942;53.196;6.592;2023-05-19T14:06:58;6.93;;;3.58;;
30127;SDS011;16942;53.196;6.592;2023-05-19T14:09:24;7.20;;;3.50;;
30127;SDS011;16942;53.196;6.592;2023-05-19T14:11:50;7.57;;;3.28;;
30127;SDS011;16942;53.196;6.592;2023-05-19T14:14:16;11.05;;;3.80;;
30127;SDS011;16942;53.196;6.592;2023-05-19T14:16:42;8.63;;;3.33;;
30127;SDS011;16942;53.196;6.592;2023-05-19T14:19:08;7.40;;;4.00;;
30127;SDS011;16942;53.196;6.592;2023-05-19T14:21:36;7.32;;;4.07;;
30127;SDS011;16942;53.196;6.592;2023-05-19T14:24:02;10.25;;;4.18;;
30127;SDS011;16942;53.196;6.592;2023-05-19T14:26:28;7.65;;;4.10;;
30127;SDS011;16942;53.196;6.592;2023-05-19T14:28:54;9.48;;;4.25;;
30127;SDS011;16942;53.196;6.592;2023-05-19T14:31:21;8.68;;;4.00;;
30127;SDS011;16942;53.196;6.592;2023-05-19T14:33:47;8.60;;;3.40;;
30127;SDS011;16942;53.196;6.592;2023-05-19T14:36:13;12.43;;;4.30;;
30127;SDS011;16942;53.196;6.592;2023-05-19T14:38:39;13.00;;;4.10;;
30127;SDS011;16942;53.196;6.592;2023-05-19T14:41:05;9.15;;;3.78;;
30127;SDS011;16942;53.196;6.592;2023-05-19T14:43:31;8.30;;;3.15;;
30127;SDS011;16942;53.196;6.592;2023-05-19T14:45:57;8.93;;;3.28;;
30127;SDS011;16942;53.196;6.592;2023-05-19T14:48:23;10.02;;;3.63;;
30127;SDS011;16942;53.196;6.592;2023-05-19T14:50:49;6.07;;;3.58;;
30127;SDS011;16942;53.196;6.592;2023-05-19T14:53:15;7.85;;;3.58;;
30127;SDS011;16942;53.196;6.592;2023-05-19T14:55:42;8.52;;;3.50;;
30127;SDS011;16942;53.196;6.592;2023-05-19T14:58:08;10.07;;;3.85;;
30127;SDS011;16942;53.196;6.592;2023-05-19T15:00:34;6.50;;;2.95;;
30127;SDS011;16942;53.196;6.592;2023-05-19T15:03:00;7.75;;;3.22;;
30127;SDS011;16942;53.196;6.592;2023-05-19T15:05:26;9.40;;;3.28;;
30127;SDS011;16942;53.196;6.592;2023-05-19T15:07:52;13.00;;;4.00;;